sensor_id;sensor_type;location;lat;lon;timestamp;pressure;altitude;pressure_sealevel;temperature;humidity
40372;BME280;28564;53.346;-6.554;2023-07-22T00:00:25;100185.25;;;17.29;53.98
40372;BME280;28564;53.346;-6.554;2023-07-22T00:02:52;100181.11;;;17.29;54.04
40372;BME280;28564;53.346;-6.554;2023-07-22T00:05:19;100177.56;;;17.30;53.89
40372;BME280;28564;53.346;-6.554;2023-07-22T00:07:46;100168.83;;;17.30;53.81
40372;BME280;28564;53.346;-6.554;2023-07-22T00:10:13;100162.55;;;17.30;53.91
40372;BME280;28564;53.346;-6.554;2023-07-22T00:12:41;100161.16;;;17.32;53.66
40372;BME280;28564;53.346;-6.554;2023-07-22T00:15:09;100158.64;;;17.31;53.65
40372;BME280;28564;53.346;-6.554;2023-07-22T00:17:36;100151.72;;;17.56;53.62
40372;BME280;28564;53.346;-6.554;2023-07-22T00:20:04;100149.14;;;17.29;53.47
40372;BME280;28564;53.346;-6.554;2023-07-22T00:22:31;100142.61;;;17.26;53.55
40372;BME280;28564;53.346;-6.554;2023-07-22T00:24:58;100141.40;;;17.25;53.47
40372;BME280;28564;53.346;-6.554;2023-07-22T00:27:25;100137.97;;;17.24;53.58
40372;BME280;28564;53.346;-6.554;2023-07-22T00:29:53;100137.58;;;17.25;53.55
40372;BME280;28564;53.346;-6.554;2023-07-22T00:32:21;100128.95;;;17.26;53.52
40372;BME280;28564;53.346;-6.554;2023-07-22T00:34:48;100124.36;;;17.27;53.32
40372;BME280;28564;53.346;-6.554;2023-07-22T00:37:15;100122.71;;;17.52;53.40
40372;BME280;28564;53.346;-6.554;2023-07-22T00:39:42;100114.07;;;17.24;53.41
40372;BME280;28564;53.346;-6.554;2023-07-22T00:42:09;100114.33;;;17.26;53.44
40372;BME280;28564;53.346;-6.554;2023-07-22T00:44:37;100122.13;;;17.30;53.43
40372;BME280;28564;53.346;-6.554;2023-07-22T00:47:04;100110.86;;;17.30;53.36
40372;BME280;28564;53.346;-6.554;2023-07-22T00:49:32;100103.11;;;17.31;53.27
40372;BME280;28564;53.346;-6.554;2023-07-22T00:52:02;100098.40;;;17.27;53.39
40372;BME280;28564;53.346;-6.554;2023-07-22T00:54:29;100100.06;;;17.24;53.54
40372;BME280;28564;53.346;-6.554;2023-07-22T00:56:58;100092.71;;;17.25;53.64
40372;BME280;28564;53.346;-6.554;2023-07-22T00:59:26;100091.42;;;17.33;53.47
40372;BME280;28564;53.346;-6.554;2023-07-22T01:01:53;100086.46;;;17.35;53.42
40372;BME280;28564;53.346;-6.554;2023-07-22T01:04:21;100079.93;;;17.37;53.33
40372;BME280;28564;53.346;-6.554;2023-07-22T01:06:55;100073.52;;;17.34;53.40
40372;BME280;28564;53.346;-6.554;2023-07-22T01:09:23;100066.85;;;17.35;53.27
40372;BME280;28564;53.346;-6.554;2023-07-22T01:11:50;100067.07;;;17.33;53.37
40372;BME280;28564;53.346;-6.554;2023-07-22T01:14:18;100057.20;;;17.33;53.45
40372;BME280;28564;53.346;-6.554;2023-07-22T01:16:45;100058.38;;;17.34;53.54
40372;BME280;28564;53.346;-6.554;2023-07-22T01:19:15;100052.90;;;17.33;53.51
40372;BME280;28564;53.346;-6.554;2023-07-22T01:21:50;100052.74;;;17.36;53.46
40372;BME280;28564;53.346;-6.554;2023-07-22T01:24:18;100046.29;;;17.37;53.46
40372;BME280;28564;53.346;-6.554;2023-07-22T01:26:46;100040.15;;;17.39;53.50
40372;BME280;28564;53.346;-6.554;2023-07-22T01:29:13;100036.20;;;17.39;53.53
40372;BME280;28564;53.346;-6.554;2023-07-22T01:31:41;100034.15;;;17.37;53.57
40372;BME280;28564;53.346;-6.554;2023-07-22T01:34:08;100025.08;;;17.35;53.62
40372;BME280;28564;53.346;-6.554;2023-07-22T01:36:35;100025.43;;;17.33;53.66
40372;BME280;28564;53.346;-6.554;2023-07-22T01:39:02;100019.98;;;17.11;53.74
40372;BME280;28564;53.346;-6.554;2023-07-22T01:41:30;100020.78;;;17.32;53.75
40372;BME280;28564;53.346;-6.554;2023-07-22T01:43:57;100016.74;;;17.27;53.82
40372;BME280;28564;53.346;-6.554;2023-07-22T01:46:24;100012.67;;;17.25;53.95
40372;BME280;28564;53.346;-6.554;2023-07-22T01:48:51;100005.72;;;17.46;54.09
40372;BME280;28564;53.346;-6.554;2023-07-22T01:51:18;100003.90;;;17.11;54.40
40372;BME280;28564;53.346;-6.554;2023-07-22T01:53:45;100000.96;;;17.04;54.67
40372;BME280;28564;53.346;-6.554;2023-07-22T01:56:12;99996.29;;;16.99;54.93
40372;BME280;28564;53.346;-6.554;2023-07-22T01:58:40;99992.60;;;17.20;55.17
40372;BME280;28564;53.346;-6.554;2023-07-22T02:01:07;99988.79;;;16.90;55.44
40372;BME280;28564;53.346;-6.554;2023-07-22T02:03:34;99979.51;;;16.86;55.57
40372;BME280;28564;53.346;-6.554;2023-07-22T02:06:02;99981.38;;;16.83;55.71
40372;BME280;28564;53.346;-6.554;2023-07-22T02:08:30;99974.56;;;17.06;55.88
40372;BME280;28564;53.346;-6.554;2023-07-22T02:11:01;99967.11;;;17.07;56.03
40372;BME280;28564;53.346;-6.554;2023-07-22T02:13:28;99967.01;;;17.07;56.33
40372;BME280;28564;53.346;-6.554;2023-07-22T02:15:56;99960.93;;;16.81;56.33
40372;BME280;28564;53.346;-6.554;2023-07-22T02:18:23;99958.19;;;17.10;56.28
40372;BME280;28564;53.346;-6.554;2023-07-22T02:20:50;99956.14;;;16.81;56.37
40372;BME280;28564;53.346;-6.554;2023-07-22T02:23:17;99947.24;;;16.79;56.34
40372;BME280;28564;53.346;-6.554;2023-07-22T02:25:44;99946.41;;;16.77;56.35
40372;BME280;28564;53.346;-6.554;2023-07-22T02:28:14;99942.81;;;16.75;56.53
40372;BME280;28564;53.346;-6.554;2023-07-22T02:30:42;99943.26;;;16.73;56.62
40372;BME280;28564;53.346;-6.554;2023-07-22T02:33:09;99935.38;;;16.95;56.81
40372;BME280;28564;53.346;-6.554;2023-07-22T02:35:36;99932.01;;;17.15;56.97
40372;BME280;28564;53.346;-6.554;2023-07-22T02:38:03;99932.40;;;17.15;57.11
40372;BME280;28564;53.346;-6.554;2023-07-22T02:40:33;99923.49;;;16.66;57.33
40372;BME280;28564;53.346;-6.554;2023-07-22T02:43:01;99922.23;;;16.67;57.31
40372;BME280;28564;53.346;-6.554;2023-07-22T02:45:28;99916.45;;;16.68;57.31
40372;BME280;28564;53.346;-6.554;2023-07-22T02:47:55;99910.14;;;16.67;57.51
40372;BME280;28564;53.346;-6.554;2023-07-22T02:50:22;99905.65;;;16.63;57.63
40372;BME280;28564;53.346;-6.554;2023-07-22T02:52:49;99901.62;;;16.61;57.90
40372;BME280;28564;53.346;-6.554;2023-07-22T02:55:17;99898.83;;;17.14;57.75
40372;BME280;28564;53.346;-6.554;2023-07-22T02:57:46;99896.69;;;16.66;57.82
40372;BME280;28564;53.346;-6.554;2023-07-22T03:00:15;99895.06;;;16.68;57.82
40372;BME280;28564;53.346;-6.554;2023-07-22T03:02:43;99893.11;;;16.98;57.78
40372;BME280;28564;53.346;-6.554;2023-07-22T03:05:13;99891.28;;;17.20;57.76
40372;BME280;28564;53.346;-6.554;2023-07-22T03:07:41;99890.35;;;16.97;57.73
40372;BME280;28564;53.346;-6.554;2023-07-22T03:10:09;99887.90;;;16.71;57.62
40372;BME280;28564;53.346;-6.554;2023-07-22T03:12:37;99885.59;;;16.71;57.89
40372;BME280;28564;53.346;-6.554;2023-07-22T03:15:06;99884.90;;;16.71;57.95
40372;BME280;28564;53.346;-6.554;2023-07-22T03:17:34;99879.59;;;16.75;57.74
40372;BME280;28564;53.346;-6.554;2023-07-22T03:20:02;99877.24;;;16.75;57.75
40372;BME280;28564;53.346;-6.554;2023-07-22T03:22:29;99873.10;;;16.77;57.80
40372;BME280;28564;53.346;-6.554;2023-07-22T03:24:57;99873.72;;;16.77;57.82
40372;BME280;28564;53.346;-6.554;2023-07-22T03:27:24;99876.04;;;16.81;57.96
40372;BME280;28564;53.346;-6.554;2023-07-22T03:29:51;99872.20;;;17.07;57.99
40372;BME280;28564;53.346;-6.554;2023-07-22T03:32:18;99871.04;;;16.84;58.00
40372;BME280;28564;53.346;-6.554;2023-07-22T03:34:45;99869.78;;;16.88;57.99
40372;BME280;28564;53.346;-6.554;2023-07-22T03:37:12;99867.19;;;17.15;57.88
40372;BME280;28564;53.346;-6.554;2023-07-22T03:39:39;99866.27;;;16.91;57.99
40372;BME280;28564;53.346;-6.554;2023-07-22T03:42:06;99861.31;;;16.92;57.98
40372;BME280;28564;53.346;-6.554;2023-07-22T03:44:33;99860.51;;;16.89;58.00
40372;BME280;28564;53.346;-6.554;2023-07-22T03:47:00;99856.19;;;16.92;58.04
40372;BME280;28564;53.346;-6.554;2023-07-22T03:49:27;99852.11;;;16.93;58.01
40372;BME280;28564;53.346;-6.554;2023-07-22T03:51:54;99849.73;;;16.92;58.12
40372;BME280;28564;53.346;-6.554;2023-07-22T03:54:22;99850.28;;;16.96;58.25
40372;BME280;28564;53.346;-6.554;2023-07-22T03:56:49;99846.64;;;17.25;58.11
40372;BME280;28564;53.346;-6.554;2023-07-22T03:59:16;99844.26;;;16.97;58.19
40372;BME280;28564;53.346;-6.554;2023-07-22T04:01:43;99842.36;;;16.96;58.16
40372;BME280;28564;53.346;-6.554;2023-07-22T04:04:10;99840.84;;;16.96;58.22
40372;BME280;28564;53.346;-6.554;2023-07-22T04:06:37;99835.05;;;17.00;58.31
40372;BME280;28564;53.346;-6.554;2023-07-22T04:09:04;99830.60;;;17.04;58.19
40372;BME280;28564;53.346;-6.554;2023-07-22T04:11:31;99834.53;;;17.07;58.17
40372;BME280;28564;53.346;-6.554;2023-07-22T04:13:58;99829.92;;;17.06;58.07
40372;BME280;28564;53.346;-6.554;2023-07-22T04:16:25;99825.45;;;17.07;58.16
40372;BME280;28564;53.346;-6.554;2023-07-22T04:18:52;99822.79;;;17.10;58.10
40372;BME280;28564;53.346;-6.554;2023-07-22T04:21:19;99819.89;;;17.10;58.11
40372;BME280;28564;53.346;-6.554;2023-07-22T04:23:46;99815.36;;;17.15;58.13
40372;BME280;28564;53.346;-6.554;2023-07-22T04:26:13;99806.85;;;17.15;58.05
40372;BME280;28564;53.346;-6.554;2023-07-22T04:28:40;99802.97;;;17.17;58.11
40372;BME280;28564;53.346;-6.554;2023-07-22T04:31:08;99793.05;;;17.18;58.06
40372;BME280;28564;53.346;-6.554;2023-07-22T04:33:35;99782.86;;;17.22;58.03
40372;BME280;28564;53.346;-6.554;2023-07-22T04:36:03;99780.89;;;17.02;57.88
40372;BME280;28564;53.346;-6.554;2023-07-22T04:38:30;99777.21;;;17.25;57.72
40372;BME280;28564;53.346;-6.554;2023-07-22T04:40:57;99777.31;;;17.25;57.94
40372;BME280;28564;53.346;-6.554;2023-07-22T04:43:24;99774.92;;;17.05;57.83
40372;BME280;28564;53.346;-6.554;2023-07-22T04:45:52;99767.18;;;17.28;57.76
40372;BME280;28564;53.346;-6.554;2023-07-22T04:48:20;99772.41;;;17.28;57.90
40372;BME280;28564;53.346;-6.554;2023-07-22T04:50:47;99770.53;;;17.28;57.89
40372;BME280;28564;53.346;-6.554;2023-07-22T04:53:17;99770.73;;;17.32;58.04
40372;BME280;28564;53.346;-6.554;2023-07-22T04:55:45;99769.83;;;17.35;58.02
40372;BME280;28564;53.346;-6.554;2023-07-22T04:58:12;99768.88;;;17.20;58.13
40372;BME280;28564;53.346;-6.554;2023-07-22T05:00:39;99765.97;;;17.45;57.99
40372;BME280;28564;53.346;-6.554;2023-07-22T05:03:07;99766.28;;;17.45;58.02
40372;BME280;28564;53.346;-6.554;2023-07-22T05:05:34;99760.76;;;17.47;57.90
40372;BME280;28564;53.346;-6.554;2023-07-22T05:08:01;99756.49;;;17.47;57.88
40372;BME280;28564;53.346;-6.554;2023-07-22T05:10:28;99757.18;;;17.50;57.99
40372;BME280;28564;53.346;-6.554;2023-07-22T05:12:55;99752.62;;;17.59;58.01
40372;BME280;28564;53.346;-6.554;2023-07-22T05:15:22;99751.85;;;17.44;57.85
40372;BME280;28564;53.346;-6.554;2023-07-22T05:17:49;99754.64;;;17.70;57.76
40372;BME280;28564;53.346;-6.554;2023-07-22T05:20:17;99751.52;;;17.49;57.78
40372;BME280;28564;53.346;-6.554;2023-07-22T05:22:44;99750.62;;;17.73;57.83
40372;BME280;28564;53.346;-6.554;2023-07-22T05:25:11;99747.60;;;17.52;57.78
40372;BME280;28564;53.346;-6.554;2023-07-22T05:27:39;99744.20;;;17.31;57.61
40372;BME280;28564;53.346;-6.554;2023-07-22T05:30:07;99740.88;;;17.63;57.62
40372;BME280;28564;53.346;-6.554;2023-07-22T05:32:36;99736.86;;;17.88;57.59
40372;BME280;28564;53.346;-6.554;2023-07-22T05:35:04;99733.20;;;17.68;57.58
40372;BME280;28564;53.346;-6.554;2023-07-22T05:37:32;99728.76;;;17.73;57.39
40372;BME280;28564;53.346;-6.554;2023-07-22T05:39:59;99723.51;;;17.96;57.33
40372;BME280;28564;53.346;-6.554;2023-07-22T05:42:27;99725.71;;;17.77;57.22
40372;BME280;28564;53.346;-6.554;2023-07-22T05:44:56;99721.97;;;18.01;57.37
40372;BME280;28564;53.346;-6.554;2023-07-22T05:47:24;99717.21;;;18.01;57.35
40372;BME280;28564;53.346;-6.554;2023-07-22T05:49:51;99712.64;;;17.82;57.36
40372;BME280;28564;53.346;-6.554;2023-07-22T05:52:18;99704.64;;;17.87;57.24
40372;BME280;28564;53.346;-6.554;2023-07-22T05:54:45;99701.04;;;17.63;57.20
40372;BME280;28564;53.346;-6.554;2023-07-22T05:57:12;99694.67;;;17.93;57.18
40372;BME280;28564;53.346;-6.554;2023-07-22T05:59:39;99690.94;;;17.72;57.10
40372;BME280;28564;53.346;-6.554;2023-07-22T06:02:07;99692.08;;;18.03;57.15
40372;BME280;28564;53.346;-6.554;2023-07-22T06:04:34;99688.01;;;17.81;57.11
40372;BME280;28564;53.346;-6.554;2023-07-22T06:07:01;99685.79;;;18.36;56.98
40372;BME280;28564;53.346;-6.554;2023-07-22T06:09:28;99683.00;;;18.18;57.02
40372;BME280;28564;53.346;-6.554;2023-07-22T06:11:55;99682.48;;;17.97;56.95
40372;BME280;28564;53.346;-6.554;2023-07-22T06:14:22;99680.29;;;18.03;57.00
40372;BME280;28564;53.346;-6.554;2023-07-22T06:16:50;99681.59;;;18.07;56.95
40372;BME280;28564;53.346;-6.554;2023-07-22T06:19:17;99683.86;;;18.40;56.93
40372;BME280;28564;53.346;-6.554;2023-07-22T06:21:44;99680.78;;;18.20;56.83
40372;BME280;28564;53.346;-6.554;2023-07-22T06:24:11;99680.70;;;18.55;56.81
40372;BME280;28564;53.346;-6.554;2023-07-22T06:26:38;99680.74;;;18.60;56.75
40372;BME280;28564;53.346;-6.554;2023-07-22T06:29:05;99679.65;;;18.69;56.51
40372;BME280;28564;53.346;-6.554;2023-07-22T06:31:32;99676.97;;;18.04;56.54
40372;BME280;28564;53.346;-6.554;2023-07-22T06:34:00;99672.57;;;18.59;56.60
40372;BME280;28564;53.346;-6.554;2023-07-22T06:36:27;99665.04;;;18.51;56.60
40372;BME280;28564;53.346;-6.554;2023-07-22T06:38:54;99663.44;;;18.86;56.51
40372;BME280;28564;53.346;-6.554;2023-07-22T06:41:21;99659.01;;;18.96;56.31
40372;BME280;28564;53.346;-6.554;2023-07-22T06:43:48;99654.34;;;19.05;56.13
40372;BME280;28564;53.346;-6.554;2023-07-22T06:46:15;99651.87;;;18.69;56.08
40372;BME280;28564;53.346;-6.554;2023-07-22T06:48:42;99651.61;;;18.73;55.88
40372;BME280;28564;53.346;-6.554;2023-07-22T06:51:09;99652.26;;;18.76;55.91
40372;BME280;28564;53.346;-6.554;2023-07-22T06:53:36;99648.02;;;18.75;55.85
40372;BME280;28564;53.346;-6.554;2023-07-22T06:56:04;99646.00;;;19.24;55.70
40372;BME280;28564;53.346;-6.554;2023-07-22T06:58:30;99641.35;;;18.80;55.72
40372;BME280;28564;53.346;-6.554;2023-07-22T07:00:58;99643.22;;;18.83;55.73
40372;BME280;28564;53.346;-6.554;2023-07-22T07:03:25;99643.97;;;19.09;55.71
40372;BME280;28564;53.346;-6.554;2023-07-22T07:05:53;99644.36;;;18.87;55.74
40372;BME280;28564;53.346;-6.554;2023-07-22T07:08:19;99646.09;;;18.91;55.82
40372;BME280;28564;53.346;-6.554;2023-07-22T07:10:47;99643.59;;;18.95;55.86
40372;BME280;28564;53.346;-6.554;2023-07-22T07:13:14;99641.18;;;19.01;55.76
40372;BME280;28564;53.346;-6.554;2023-07-22T07:15:41;99637.85;;;19.09;55.75
40372;BME280;28564;53.346;-6.554;2023-07-22T07:18:08;99636.08;;;19.38;55.71
40372;BME280;28564;53.346;-6.554;2023-07-22T07:20:35;99636.20;;;19.18;55.65
40372;BME280;28564;53.346;-6.554;2023-07-22T07:23:02;99636.81;;;19.27;55.78
40372;BME280;28564;53.346;-6.554;2023-07-22T07:25:29;99635.25;;;19.39;55.71
40372;BME280;28564;53.346;-6.554;2023-07-22T07:27:56;99634.47;;;19.49;55.67
40372;BME280;28564;53.346;-6.554;2023-07-22T07:30:23;99635.46;;;19.65;55.58
40372;BME280;28564;53.346;-6.554;2023-07-22T07:32:50;99629.73;;;19.77;55.36
40372;BME280;28564;53.346;-6.554;2023-07-22T07:35:17;99628.25;;;19.91;55.34
40372;BME280;28564;53.346;-6.554;2023-07-22T07:37:44;99626.83;;;20.09;54.99
40372;BME280;28564;53.346;-6.554;2023-07-22T07:40:12;99628.13;;;19.84;54.66
40372;BME280;28564;53.346;-6.554;2023-07-22T07:42:39;99627.36;;;20.27;54.54
40372;BME280;28564;53.346;-6.554;2023-07-22T07:45:07;99625.52;;;20.19;54.39
40372;BME280;28564;53.346;-6.554;2023-07-22T07:47:35;99623.82;;;20.28;54.37
40372;BME280;28564;53.346;-6.554;2023-07-22T07:50:02;99623.01;;;20.29;54.14
40372;BME280;28564;53.346;-6.554;2023-07-22T07:52:30;99623.15;;;20.21;54.05
40372;BME280;28564;53.346;-6.554;2023-07-22T07:54:57;99623.91;;;20.38;54.06
40372;BME280;28564;53.346;-6.554;2023-07-22T07:57:24;99620.70;;;20.10;54.23
40372;BME280;28564;53.346;-6.554;2023-07-22T07:59:51;99613.59;;;20.26;54.18
40372;BME280;28564;53.346;-6.554;2023-07-22T08:02:18;99614.03;;;20.04;54.31
40372;BME280;28564;53.346;-6.554;2023-07-22T08:04:45;99613.69;;;20.22;53.91
40372;BME280;28564;53.346;-6.554;2023-07-22T08:07:16;99608.67;;;20.04;54.14
40372;BME280;28564;53.346;-6.554;2023-07-22T08:09:43;99604.70;;;20.06;54.19
40372;BME280;28564;53.346;-6.554;2023-07-22T08:12:10;99599.01;;;20.39;54.43
40372;BME280;28564;53.346;-6.554;2023-07-22T08:14:37;99601.32;;;20.24;54.07
40372;BME280;28564;53.346;-6.554;2023-07-22T08:17:04;99590.89;;;20.35;54.03
40372;BME280;28564;53.346;-6.554;2023-07-22T08:19:31;99591.16;;;20.42;54.05
40372;BME280;28564;53.346;-6.554;2023-07-22T08:21:59;99591.40;;;20.50;54.25
40372;BME280;28564;53.346;-6.554;2023-07-22T08:24:26;99593.57;;;20.79;54.29
40372;BME280;28564;53.346;-6.554;2023-07-22T08:26:53;99589.32;;;20.54;53.94
40372;BME280;28564;53.346;-6.554;2023-07-22T08:29:20;99589.01;;;20.51;53.77
40372;BME280;28564;53.346;-6.554;2023-07-22T08:31:47;99581.72;;;20.52;53.74
40372;BME280;28564;53.346;-6.554;2023-07-22T08:34:14;99582.46;;;20.60;53.70
40372;BME280;28564;53.346;-6.554;2023-07-22T08:36:41;99582.43;;;20.69;53.71
40372;BME280;28564;53.346;-6.554;2023-07-22T08:39:08;99580.21;;;20.82;53.99
40372;BME280;28564;53.346;-6.554;2023-07-22T08:41:36;99584.24;;;20.91;53.63
40372;BME280;28564;53.346;-6.554;2023-07-22T08:44:04;99583.72;;;20.93;53.53
40372;BME280;28564;53.346;-6.554;2023-07-22T08:46:33;99580.73;;;20.38;53.47
40372;BME280;28564;53.346;-6.554;2023-07-22T08:49:04;99578.70;;;20.91;53.70
40372;BME280;28564;53.346;-6.554;2023-07-22T08:51:33;99576.20;;;20.67;53.60
40372;BME280;28564;53.346;-6.554;2023-07-22T08:54:01;99573.77;;;20.95;53.66
40372;BME280;28564;53.346;-6.554;2023-07-22T08:56:33;99573.58;;;21.03;53.62
40372;BME280;28564;53.346;-6.554;2023-07-22T08:59:01;99572.08;;;21.19;53.85
40372;BME280;28564;53.346;-6.554;2023-07-22T09:01:29;99568.05;;;20.87;53.88
40372;BME280;28564;53.346;-6.554;2023-07-22T09:03:56;99566.31;;;21.16;53.72
40372;BME280;28564;53.346;-6.554;2023-07-22T09:06:24;99565.21;;;21.39;53.12
40372;BME280;28564;53.346;-6.554;2023-07-22T09:08:52;99563.13;;;21.53;52.66
40372;BME280;28564;53.346;-6.554;2023-07-22T09:11:20;99562.09;;;21.69;52.84
40372;BME280;28564;53.346;-6.554;2023-07-22T09:13:48;99563.36;;;21.91;52.91
40372;BME280;28564;53.346;-6.554;2023-07-22T09:16:17;99563.95;;;22.07;52.42
40372;BME280;28564;53.346;-6.554;2023-07-22T09:18:45;99563.51;;;22.01;51.33
40372;BME280;28564;53.346;-6.554;2023-07-22T09:21:14;99559.76;;;21.87;51.42
40372;BME280;28564;53.346;-6.554;2023-07-22T09:23:41;99557.22;;;21.81;52.15
40372;BME280;28564;53.346;-6.554;2023-07-22T09:26:10;99553.84;;;21.79;52.48
40372;BME280;28564;53.346;-6.554;2023-07-22T09:28:55;99552.85;;;21.74;51.71
40372;BME280;28564;53.346;-6.554;2023-07-22T09:31:25;99552.80;;;21.67;51.89
40372;BME280;28564;53.346;-6.554;2023-07-22T09:33:53;99551.21;;;21.59;51.60
40372;BME280;28564;53.346;-6.554;2023-07-22T09:36:21;99552.98;;;21.85;52.09
40372;BME280;28564;53.346;-6.554;2023-07-22T09:38:59;99550.69;;;21.64;52.13
40372;BME280;28564;53.346;-6.554;2023-07-22T09:41:28;99555.03;;;21.62;51.85
40372;BME280;28564;53.346;-6.554;2023-07-22T09:43:56;99554.27;;;21.64;52.06
40372;BME280;28564;53.346;-6.554;2023-07-22T09:46:31;99552.77;;;21.73;52.34
40372;BME280;28564;53.346;-6.554;2023-07-22T09:49:02;99549.76;;;21.78;51.80
40372;BME280;28564;53.346;-6.554;2023-07-22T09:51:33;99550.84;;;21.55;51.64
40372;BME280;28564;53.346;-6.554;2023-07-22T09:54:02;99551.93;;;21.78;51.71
40372;BME280;28564;53.346;-6.554;2023-07-22T09:56:30;99551.31;;;21.75;51.66
40372;BME280;28564;53.346;-6.554;2023-07-22T09:58:59;99552.40;;;21.49;51.94
40372;BME280;28564;53.346;-6.554;2023-07-22T10:01:26;99553.32;;;21.72;52.12
40372;BME280;28564;53.346;-6.554;2023-07-22T10:03:55;99554.64;;;21.78;52.03
40372;BME280;28564;53.346;-6.554;2023-07-22T10:06:26;99553.19;;;21.77;51.51
40372;BME280;28564;53.346;-6.554;2023-07-22T10:08:55;99552.38;;;21.73;51.37
40372;BME280;28564;53.346;-6.554;2023-07-22T10:11:26;99549.91;;;21.73;51.89
40372;BME280;28564;53.346;-6.554;2023-07-22T10:13:55;99549.76;;;21.83;52.37
40372;BME280;28564;53.346;-6.554;2023-07-22T10:16:23;99552.16;;;21.95;52.56
40372;BME280;28564;53.346;-6.554;2023-07-22T10:18:50;99551.81;;;21.99;52.35
40372;BME280;28564;53.346;-6.554;2023-07-22T10:21:18;99550.62;;;22.07;52.47
40372;BME280;28564;53.346;-6.554;2023-07-22T10:23:47;99549.85;;;22.18;52.48
40372;BME280;28564;53.346;-6.554;2023-07-22T10:26:16;99546.89;;;22.04;52.20
40372;BME280;28564;53.346;-6.554;2023-07-22T10:28:45;99541.27;;;21.91;52.43
40372;BME280;28564;53.346;-6.554;2023-07-22T10:31:13;99541.92;;;22.34;52.60
40372;BME280;28564;53.346;-6.554;2023-07-22T10:33:40;99541.26;;;22.50;52.20
40372;BME280;28564;53.346;-6.554;2023-07-22T10:36:09;99543.12;;;22.17;52.03
40372;BME280;28564;53.346;-6.554;2023-07-22T10:38:39;99540.43;;;23.03;52.33
40372;BME280;28564;53.346;-6.554;2023-07-22T10:41:12;99539.31;;;23.17;51.86
40372;BME280;28564;53.346;-6.554;2023-07-22T10:43:40;99539.28;;;23.13;51.26
40372;BME280;28564;53.346;-6.554;2023-07-22T10:46:11;99537.28;;;23.47;50.59
40372;BME280;28564;53.346;-6.554;2023-07-22T10:48:39;99533.77;;;23.60;49.75
40372;BME280;28564;53.346;-6.554;2023-07-22T10:51:09;99534.68;;;23.91;49.98
40372;BME280;28564;53.346;-6.554;2023-07-22T10:53:41;99528.58;;;23.94;49.66
40372;BME280;28564;53.346;-6.554;2023-07-22T10:56:14;99532.82;;;24.37;49.60
40372;BME280;28564;53.346;-6.554;2023-07-22T10:58:58;99528.19;;;23.91;48.17
40372;BME280;28564;53.346;-6.554;2023-07-22T11:01:36;99525.34;;;23.98;47.39
40372;BME280;28564;53.346;-6.554;2023-07-22T11:04:06;99527.21;;;23.50;48.40
40372;BME280;28564;53.346;-6.554;2023-07-22T11:06:36;99523.52;;;23.86;49.04
40372;BME280;28564;53.346;-6.554;2023-07-22T11:09:04;99518.95;;;23.99;49.13
40372;BME280;28564;53.346;-6.554;2023-07-22T11:11:41;99517.20;;;23.96;49.20
40372;BME280;28564;53.346;-6.554;2023-07-22T11:14:15;99510.66;;;24.50;49.18
40372;BME280;28564;53.346;-6.554;2023-07-22T11:16:44;99505.99;;;24.43;48.28
40372;BME280;28564;53.346;-6.554;2023-07-22T11:19:12;99505.74;;;23.65;48.51
40372;BME280;28564;53.346;-6.554;2023-07-22T11:21:40;99498.48;;;24.19;49.22
40372;BME280;28564;53.346;-6.554;2023-07-22T11:24:07;99499.82;;;24.41;49.32
40372;BME280;28564;53.346;-6.554;2023-07-22T11:26:35;99496.45;;;24.22;48.94
40372;BME280;28564;53.346;-6.554;2023-07-22T11:29:04;99491.55;;;24.11;48.90
40372;BME280;28564;53.346;-6.554;2023-07-22T11:31:32;99488.15;;;24.86;48.66
40372;BME280;28564;53.346;-6.554;2023-07-22T11:34:00;99487.93;;;24.72;48.50
40372;BME280;28564;53.346;-6.554;2023-07-22T11:36:28;99487.16;;;25.16;47.72
40372;BME280;28564;53.346;-6.554;2023-07-22T11:39:02;99482.41;;;25.61;48.23
40372;BME280;28564;53.346;-6.554;2023-07-22T11:41:29;99477.33;;;25.51;47.39
40372;BME280;28564;53.346;-6.554;2023-07-22T11:43:57;99472.95;;;25.87;47.12
40372;BME280;28564;53.346;-6.554;2023-07-22T11:46:25;99467.81;;;25.95;46.33
40372;BME280;28564;53.346;-6.554;2023-07-22T11:48:53;99468.42;;;25.85;46.77
40372;BME280;28564;53.346;-6.554;2023-07-22T11:51:22;99464.23;;;25.91;47.22
40372;BME280;28564;53.346;-6.554;2023-07-22T11:53:52;99464.88;;;25.92;46.85
40372;BME280;28564;53.346;-6.554;2023-07-22T11:56:21;99461.33;;;25.61;45.94
40372;BME280;28564;53.346;-6.554;2023-07-22T11:58:50;99458.30;;;25.66;46.14
40372;BME280;28564;53.346;-6.554;2023-07-22T12:01:18;99456.29;;;25.71;46.83
40372;BME280;28564;53.346;-6.554;2023-07-22T12:03:46;99450.84;;;25.76;46.91
40372;BME280;28564;53.346;-6.554;2023-07-22T12:06:14;99448.29;;;25.60;46.47
40372;BME280;28564;53.346;-6.554;2023-07-22T12:08:45;99444.65;;;25.47;46.47
40372;BME280;28564;53.346;-6.554;2023-07-22T12:11:17;99440.39;;;25.11;46.75
40372;BME280;28564;53.346;-6.554;2023-07-22T12:13:44;99437.42;;;25.35;46.96
40372;BME280;28564;53.346;-6.554;2023-07-22T12:16:12;99433.38;;;25.16;46.74
40372;BME280;28564;53.346;-6.554;2023-07-22T12:18:43;99433.22;;;25.15;47.19
40372;BME280;28564;53.346;-6.554;2023-07-22T12:21:11;99432.47;;;24.86;47.53
40372;BME280;28564;53.346;-6.554;2023-07-22T12:23:39;99430.63;;;25.09;47.74
40372;BME280;28564;53.346;-6.554;2023-07-22T12:26:06;99426.35;;;25.12;47.68
40372;BME280;28564;53.346;-6.554;2023-07-22T12:28:34;99423.60;;;25.09;47.99
40372;BME280;28564;53.346;-6.554;2023-07-22T12:31:01;99418.27;;;25.12;47.82
40372;BME280;28564;53.346;-6.554;2023-07-22T12:33:29;99409.95;;;25.57;46.97
40372;BME280;28564;53.346;-6.554;2023-07-22T12:35:56;99411.41;;;26.35;46.61
40372;BME280;28564;53.346;-6.554;2023-07-22T12:38:24;99405.14;;;26.90;44.83
40372;BME280;28564;53.346;-6.554;2023-07-22T12:40:51;99400.51;;;27.22;44.16
40372;BME280;28564;53.346;-6.554;2023-07-22T12:43:18;99401.74;;;27.21;43.64
40372;BME280;28564;53.346;-6.554;2023-07-22T12:45:45;99402.88;;;27.24;42.89
40372;BME280;28564;53.346;-6.554;2023-07-22T12:48:13;99400.37;;;26.80;42.24
40372;BME280;28564;53.346;-6.554;2023-07-22T12:50:41;99401.80;;;26.24;42.81